CW4778 Auckland NZ current weather conditions

sailwx.info

Wind from 344 at 6 knots gusting 15

Air temperature 14.4° C
Dewpoint 11.6° C

Last reported at 2016-Jun-26 03:38 UTC.
Time now 2016-Jun-26 04:49 UTC

Location: S 36°52' E 174°44'.
View on Google Maps.

See reports from other nearby stations

  
Tides and Currents Weather Stations Pressure Air Temp Water Temp Dewpoint Dewpoint Depression Visibility Wind Speed Wind Dir Waves Ship Positions
date/time (UTC)wind fromknots sea level pressurealtimeterstation pressurevisibilityair tempwater tempwave heightnotes
2016-Jun-26 03:38 344 6 gusting 15 14.4
2016-Jun-26 02:48 344 14 gusting 19 15.6
2016-Jun-26 02:38 320 11 gusting 20 15.6
2016-Jun-26 02:28 329 11 gusting 19 15.0
2016-Jun-26 01:58 328 7 gusting 11 14.4
2016-Jun-26 01:48 309 6 gusting 11 15.0
2016-Jun-26 01:18 348 3 gusting 10 13.3
2016-Jun-26 00:58 344 8 gusting 17 13.3
2016-Jun-26 00:48 313 6 gusting 18 13.9
2016-Jun-26 00:38 354 7 gusting 17 15.0
2016-Jun-26 00:18 337 8 gusting 20 16.7
2016-Jun-25 23:18 344 11 gusting 17 13.9
2016-Jun-25 23:08 011 8 gusting 19 13.9
2016-Jun-25 22:28 346 10 gusting 13 13.9
2016-Jun-25 22:18 344 6 gusting 17 14.4
2016-Jun-25 21:38 345 5 gusting 8 12.8
2016-Jun-25 21:28 003 5 gusting 10 12.8
2016-Jun-25 21:18 030 4 gusting 13 12.8
2016-Jun-25 21:08 001 6 gusting 11 12.8
2016-Jun-25 20:48 014 6 gusting 14 12.2
2016-Jun-25 20:28 351 9 gusting 13 12.2
2016-Jun-25 20:18 320 5 gusting 11 12.8
2016-Jun-25 19:48 335 11 gusting 19 13.9
2016-Jun-25 19:28 357 6 gusting 14 13.9
2016-Jun-25 19:08 347 7 gusting 13 13.3
2016-Jun-25 18:58 339 4 gusting 10 13.3
2016-Jun-25 18:48 359 5 gusting 13 13.3
2016-Jun-25 18:38 004 6 gusting 8 13.3
2016-Jun-25 18:28 354 7 gusting 13 13.3
2016-Jun-25 18:18 002 6 gusting 13 13.3
2016-Jun-25 17:58 315 8 gusting 15 13.3
2016-Jun-25 17:28 329 10 gusting 15 12.8
2016-Jun-25 17:18 339 4 gusting 10 12.8
2016-Jun-25 16:58 018 7 gusting 13 12.8
2016-Jun-25 16:48 004 6 gusting 12 12.8
2016-Jun-25 16:38 352 4 gusting 7 12.8
2016-Jun-25 16:28 033 6 gusting 8 12.8
2016-Jun-25 16:18 040 6 gusting 11 12.8
2016-Jun-25 15:58 007 4 gusting 10 12.8
2016-Jun-25 15:48 001 5 gusting 8 12.8
2016-Jun-25 15:38 010 5 gusting 8 13.3
2016-Jun-25 15:28 353 6 gusting 11 13.3
2016-Jun-25 15:18 008 6 gusting 11 13.3
2016-Jun-25 15:08 358 6 gusting 12 13.3
2016-Jun-25 14:58 351 6 gusting 10 13.3
2016-Jun-25 14:48 009 7 gusting 10 12.8
2016-Jun-25 14:38 005 5 gusting 13 13.3
2016-Jun-25 14:28 025 5 gusting 10 13.3
2016-Jun-25 14:18 13.3
2016-Jun-25 13:58 358 4 gusting 8 13.3
2016-Jun-25 13:48 345 5 gusting 7 13.3
2016-Jun-25 13:28 321 4 gusting 10 13.9
2016-Jun-25 13:18 329 6 gusting 10 13.9
2016-Jun-25 13:08 304 2 gusting 7 13.9
2016-Jun-25 12:48 007 13.9
2016-Jun-25 12:38 357 14.4
2016-Jun-25 12:28 014 14.4
2016-Jun-25 12:18 034 1 gusting 6 14.4
2016-Jun-25 12:08 031 4 gusting 7 15.0
2016-Jun-25 11:58 025 5 gusting 10 15.0
2016-Jun-25 11:48 015 6 gusting 10 15.0
2016-Jun-25 11:38 015 6 gusting 12 15.0
2016-Jun-25 11:28 024 6 gusting 12 15.0
2016-Jun-25 11:18 007 8 gusting 17 15.0
2016-Jun-25 11:08 014 7 gusting 14 15.0
2016-Jun-25 10:28 022 7 gusting 12 15.0
2016-Jun-25 10:18 028 8 gusting 13 15.0
2016-Jun-25 10:08 034 6 gusting 13 15.0
2016-Jun-25 09:58 014 6 gusting 12 15.6
2016-Jun-25 09:48 010 7 gusting 13 15.6
2016-Jun-25 09:18 010 5 gusting 13 15.6
2016-Jun-25 08:58 018 8 gusting 13 15.6
2016-Jun-25 08:48 004 6 gusting 11 15.6
2016-Jun-25 08:18 056 8 gusting 13 15.6
2016-Jun-25 07:48 023 2 gusting 7 15.6
2016-Jun-25 07:28 021 11 gusting 15 15.6
2016-Jun-25 07:18 058 9 gusting 13 15.6
2016-Jun-25 07:08 066 6 gusting 12 15.6
2016-Jun-25 06:38 044 6 gusting 8 15.6
2016-Jun-25 06:28 036 5 gusting 11 15.6
2016-Jun-25 06:18 055 5 gusting 8 15.6
2016-Jun-25 06:08 023 6 gusting 12 15.6
2016-Jun-25 05:58 024 6 gusting 12 15.0
2016-Jun-25 05:48 064 4 gusting 10 15.0
2016-Jun-25 05:28 054 5 gusting 11 14.4
2016-Jun-25 05:18 057 5 gusting 8 14.4
2016-Jun-25 04:58 036 5 gusting 10 15.0
2016-Jun-25 04:48 045 3 gusting 6 15.0
2016-Jun-25 04:28 042 15.0
2016-Jun-25 04:18 058 15.0
2016-Jun-25 04:08 129 15.0
2016-Jun-25 03:58 129 15.0
2016-Jun-25 03:38 129 15.0
2016-Jun-25 03:28 130 15.0
2016-Jun-25 03:08 124 15.0
2016-Jun-25 02:38 123 2 gusting 5 14.4
2016-Jun-25 02:28 080 13.9
2016-Jun-25 02:08 071 13.9
2016-Jun-25 01:58 069 14.4
2016-Jun-25 01:48 060 8 gusting 14 13.9
2016-Jun-25 01:38 091 6 gusting 15 13.9
2016-Jun-25 01:28 084 13 gusting 19 13.9
2016-Jun-25 00:48 076 10 gusting 17 13.9
2016-Jun-25 00:38 075 5 gusting 17 13.9
2016-Jun-25 00:28 075 10 gusting 15 13.3
2016-Jun-25 00:08 121 5 gusting 11 12.8
2016-Jun-24 23:58 086 6 gusting 8 12.8
2016-Jun-24 23:48 102 2 gusting 11 12.8
2016-Jun-24 23:38 126 5 gusting 7 12.8
2016-Jun-24 23:18 075 5 gusting 10 12.8
2016-Jun-24 23:08 095 7 gusting 15 12.8
2016-Jun-24 22:48 114 11 gusting 14 12.8
2016-Jun-24 22:38 090 7 gusting 15 12.8
2016-Jun-24 22:28 098 6 gusting 13 12.8
2016-Jun-24 22:08 090 10 gusting 15 12.8
2016-Jun-24 21:48 097 6 gusting 13 12.2
2016-Jun-24 21:28 100 12 gusting 15 11.7
2016-Jun-24 21:08 083 10 gusting 14 12.2
2016-Jun-24 20:58 079 5 gusting 13 12.2
2016-Jun-24 20:38 066 11 gusting 18 12.8
2016-Jun-24 20:28 067 7 gusting 11 12.8
2016-Jun-24 20:18 046 7 gusting 15 13.3
2016-Jun-24 20:08 058 6 gusting 10 12.8
2016-Jun-24 19:58 077 6 gusting 12 12.8
2016-Jun-24 19:48 054 8 gusting 12 13.3
2016-Jun-24 19:28 034 7 gusting 12 13.3
2016-Jun-24 19:18 047 5 gusting 13 13.3
2016-Jun-24 19:08 039 7 gusting 13 12.8
2016-Jun-24 18:58 051 8 gusting 14 12.8
2016-Jun-24 18:38 071 7 gusting 13 12.2
2016-Jun-24 18:28 036 6 gusting 12 12.2
2016-Jun-24 18:18 035 5 gusting 10 12.2
2016-Jun-24 18:08 044 6 gusting 10 12.2
2016-Jun-24 17:58 061 6 gusting 13 12.2
2016-Jun-24 17:38 065 2 gusting 8 12.2
2016-Jun-24 17:18 057 2 gusting 6 12.2
2016-Jun-24 17:08 069 4 gusting 6 12.2
2016-Jun-24 16:58 083 2 gusting 5 11.7
2016-Jun-24 16:38 202 11.1
2016-Jun-24 16:18 201 10.6
2016-Jun-24 16:08 201 10.0
2016-Jun-24 15:48 202 10.0
2016-Jun-24 15:38 202 9.4
2016-Jun-24 15:28 203 9.4
2016-Jun-24 15:18 202 10.0
2016-Jun-24 15:08 200 10.0
2016-Jun-24 14:58 203 9.4
2016-Jun-24 14:48 202 9.4
2016-Jun-24 14:38 202 9.4
2016-Jun-24 14:28 202 9.4
2016-Jun-24 14:18 202 9.4
2016-Jun-24 14:08 202 9.4
2016-Jun-24 13:48 202 9.4
2016-Jun-24 13:38 202 10.0
2016-Jun-24 13:28 203 10.0
2016-Jun-24 13:08 203 10.0
2016-Jun-24 12:58 231 0 gusting 4 10.0
2016-Jun-24 12:48 250 9.4
2016-Jun-24 12:38 249 9.4
2016-Jun-24 12:08 250 10.0
2016-Jun-24 11:48 251 1 gusting 5 10.6
2016-Jun-24 11:38 305 0 gusting 1 10.0
2016-Jun-24 11:18 331 9.4
2016-Jun-24 11:08 295 9.4
2016-Jun-24 10:48 245 10.0
2016-Jun-24 10:38 246 10.0
2016-Jun-24 10:28 243 10.0
2016-Jun-24 10:18 245 10.0
2016-Jun-24 10:08 244 10.0
2016-Jun-24 09:58 245 10.6
2016-Jun-24 09:48 246 10.6
2016-Jun-24 09:38 247 11.1
2016-Jun-24 09:28 245 11.1
2016-Jun-24 09:18 314 10.6
2016-Jun-24 08:58 357 10.0
2016-Jun-24 08:48 327 0 gusting 2 10.0
2016-Jun-24 08:38 342 10.6
2016-Jun-24 08:08 338 10.6
2016-Jun-24 07:58 315 0 gusting 1 11.1
2016-Jun-24 07:38 314 11.1
2016-Jun-24 07:28 315 11.1
2016-Jun-24 07:18 11.1
2016-Jun-24 07:08 275 11.1
2016-Jun-24 06:58 276 11.7
2016-Jun-24 06:48 278 11.7
2016-Jun-24 06:38 275 11.7
2016-Jun-24 06:28 279 11.7
2016-Jun-24 06:18 273 12.2
2016-Jun-24 06:08 275 12.2
2016-Jun-24 05:58 276 12.8
2016-Jun-24 05:48 295 12.8
2016-Jun-24 05:38 275 1 gusting 4 13.3
2016-Jun-24 05:28 221 13.9
2016-Jun-24 05:18 222 1 gusting 5 13.9
2016-Jun-24 04:38 282 1 gusting 10 15.0
2016-Jun-24 04:28 269 6 gusting 12 15.0
2016-Jun-24 04:18 258 7 gusting 12 15.6
2016-Jun-24 04:08 140 4 gusting 10 15.6